createdAt,value
2019-02-10T00:01:14.371Z,28.27
2019-02-10T00:04:09.032Z,27.73
2019-02-10T00:07:04.410Z,28.17
2019-02-10T00:09:58.989Z,27.87
2019-02-10T00:13:30.396Z,26.70
2019-02-10T00:16:26.095Z,26.93
2019-02-10T00:19:20.946Z,28.40
2019-02-10T00:22:16.613Z,28.27
2019-02-10T00:25:11.276Z,27.70
2019-02-10T00:28:05.852Z,27.77
2019-02-10T00:31:00.394Z,27.63
2019-02-10T00:33:54.993Z,27.33
2019-02-10T00:36:49.332Z,26.07
2019-02-10T00:39:43.691Z,25.90
2019-02-10T00:42:39.985Z,26.80
2019-02-10T00:45:34.632Z,26.80
2019-02-10T00:48:28.783Z,26.43
2019-02-10T00:51:23.656Z,26.90
2019-02-10T00:54:18.309Z,26.53
2019-02-10T00:57:13.051Z,27.03
2019-02-10T01:00:08.018Z,26.37
2019-02-10T01:03:02.963Z,26.00
2019-02-10T01:05:57.539Z,26.33
2019-02-10T01:08:53.720Z,27.20
2019-02-10T01:11:48.263Z,26.27
2019-02-10T01:14:42.786Z,27.63
2019-02-10T01:17:37.405Z,25.97
2019-02-10T01:20:32.091Z,25.37
2019-02-10T01:23:26.445Z,27.27
2019-02-10T01:26:20.775Z,26.03
2019-02-10T01:29:15.331Z,25.23
2019-02-10T01:32:10.669Z,24.30
2019-02-10T01:35:04.945Z,25.97
2019-02-10T01:37:59.636Z,26.60
2019-02-10T01:40:55.555Z,25.47
2019-02-10T01:43:51.855Z,26.10
2019-02-10T01:46:45.970Z,26.50
2019-02-10T01:49:40.202Z,25.13
2019-02-10T01:52:34.761Z,26.23
2019-02-10T01:55:28.904Z,26.13
2019-02-10T01:58:23.416Z,25.30
2019-02-10T02:01:19.045Z,23.73
2019-02-10T02:04:13.536Z,24.47
2019-02-10T02:07:07.896Z,24.07
2019-02-10T02:10:02.856Z,23.37
2019-02-10T02:12:57.719Z,23.20
2019-02-10T02:15:52.310Z,23.30
2019-02-10T02:18:46.681Z,22.37
2019-02-10T02:21:42.291Z,23.53
2019-02-10T02:24:36.574Z,23.03
2019-02-10T02:27:31.005Z,21.63
2019-02-10T02:30:25.507Z,22.43
2019-02-10T02:33:20.330Z,21.70
2019-02-10T02:36:14.781Z,21.20
2019-02-10T02:39:09.175Z,22.07
2019-02-10T02:42:03.632Z,21.67
2019-02-10T02:44:58.395Z,22.27
2019-02-10T02:47:53.290Z,20.27
2019-02-10T02:50:47.872Z,21.70
2019-02-10T02:53:42.210Z,21.57
2019-02-10T02:56:36.577Z,21.80
2019-02-10T02:59:30.835Z,20.70
2019-02-10T03:02:25.466Z,20.67
2019-02-10T03:05:19.781Z,20.47
2019-02-10T03:08:14.085Z,20.63
2019-02-10T03:11:08.520Z,19.50
2019-02-10T03:14:04.422Z,20.17
2019-02-10T03:16:58.538Z,21.00
2019-02-10T03:19:53.056Z,20.93
2019-02-10T03:22:47.795Z,20.57
2019-02-10T03:25:42.361Z,20.87
2019-02-10T03:28:37.784Z,20.53
2019-02-10T03:31:32.477Z,20.20
2019-02-10T03:34:26.611Z,20.50
2019-02-10T03:37:26.830Z,17.53
2019-02-10T03:40:17.248Z,19.30
2019-02-10T03:43:11.575Z,19.20
2019-02-10T03:46:06.360Z,19.43
2019-02-10T03:49:00.885Z,18.63
2019-02-10T03:51:55.287Z,18.73
2019-02-10T03:54:49.911Z,20.03
2019-02-10T03:57:45.053Z,18.53
2019-02-10T04:00:41.998Z,19.07
2019-02-10T04:03:36.936Z,19.03
2019-02-10T04:06:34.218Z,17.50
2019-02-10T04:09:29.171Z,18.83
2019-02-10T04:12:24.461Z,17.57
2019-02-10T04:15:21.723Z,17.50
2019-02-10T04:18:19.457Z,18.83
2019-02-10T04:21:15.336Z,18.73
2019-02-10T04:24:10.172Z,17.43
2019-02-10T04:27:08.008Z,16.73
2019-02-10T04:30:06.159Z,17.33
2019-02-10T04:33:01.722Z,16.27
2019-02-10T04:35:56.743Z,14.03
2019-02-10T04:38:53.925Z,15.90
2019-02-10T04:41:50.912Z,16.43
2019-02-10T04:44:45.600Z,16.23
2019-02-10T04:47:40.632Z,14.17
2019-02-10T04:50:38.396Z,15.50
2019-02-10T04:53:33.560Z,16.00
2019-02-10T04:56:28.692Z,15.43
2019-02-10T04:59:23.785Z,16.17
2019-02-10T05:02:18.668Z,12.90
2019-02-10T05:05:13.430Z,15.43
2019-02-10T05:08:08.863Z,14.40
2019-02-10T05:11:03.472Z,14.57
2019-02-10T05:13:58.812Z,15.33
2019-02-10T05:16:53.908Z,14.37
2019-02-10T05:19:49.303Z,16.00
2019-02-10T05:22:44.266Z,14.47
2019-02-10T05:25:40.660Z,15.17
2019-02-10T05:28:36.191Z,13.23
2019-02-10T05:31:31.793Z,14.33
2019-02-10T05:34:27.586Z,16.17
2019-02-10T05:37:22.959Z,13.80
2019-02-10T05:40:18.288Z,14.23
2019-02-10T05:43:14.813Z,14.70
2019-02-10T05:46:12.485Z,14.27
2019-02-10T05:49:07.413Z,15.03
2019-02-10T05:52:02.676Z,16.57
2019-02-10T05:54:57.735Z,14.83
2019-02-10T05:57:53.914Z,13.07
2019-02-10T06:00:49.203Z,14.00
2019-02-10T06:03:44.704Z,14.83
2019-02-10T06:06:40.583Z,14.30
2019-02-10T06:09:36.135Z,13.70
2019-02-10T06:12:30.341Z,13.90
2019-02-10T06:15:25.559Z,13.70
2019-02-10T06:18:20.469Z,13.60
2019-02-10T06:21:15.065Z,13.00
2019-02-10T06:24:10.227Z,13.20
2019-02-10T06:27:04.956Z,14.60
2019-02-10T06:30:00.292Z,12.40
2019-02-10T06:32:54.831Z,12.53
2019-02-10T06:35:50.047Z,12.63
2019-02-10T06:38:44.840Z,13.20
2019-02-10T06:41:39.876Z,12.37
2019-02-10T06:44:34.765Z,12.87
2019-02-10T06:47:30.194Z,12.83
2019-02-10T06:50:25.470Z,13.07
2019-02-10T06:53:20.792Z,12.73
2019-02-10T06:56:15.794Z,12.50
2019-02-10T06:59:14.577Z,12.83
2019-02-10T07:02:27.703Z,12.53
2019-02-10T07:05:23.117Z,13.17
2019-02-10T07:08:18.117Z,12.63
2019-02-10T07:11:13.017Z,12.60
2019-02-10T07:14:10.593Z,10.07
2019-02-10T07:17:46.648Z,13.57
2019-02-10T07:20:49.433Z,11.77
2019-02-10T07:24:01.361Z,11.80
2019-02-10T07:26:59.771Z,11.73
2019-02-10T07:30:36.353Z,12.53
2019-02-10T07:34:05.778Z,12.37
2019-02-10T07:37:31.741Z,13.10
2019-02-10T07:40:55.887Z,11.97
2019-02-10T07:44:37.630Z,12.17
2019-02-10T07:47:59.397Z,11.77
2019-02-10T07:51:32.850Z,12.27
2019-02-10T07:54:42.570Z,11.50
2019-02-10T07:58:08.948Z,12.03
2019-02-10T08:01:36.735Z,12.03
2019-02-10T08:05:36.398Z,11.07
2019-02-10T08:09:16.597Z,10.77
2019-02-10T08:12:35.768Z,11.50
2019-02-10T08:15:55.134Z,10.93
2019-02-10T08:18:59.651Z,9.63
2019-02-10T08:22:35.150Z,10.13
2019-02-10T08:25:38.317Z,11.27
2019-02-10T08:28:49.938Z,10.37
2019-02-10T08:32:38.456Z,11.20
2019-02-10T08:36:13.670Z,11.50
2019-02-10T08:39:44.414Z,11.87
2019-02-10T08:43:03.357Z,11.20
2019-02-10T08:46:11.542Z,11.13
2019-02-10T08:49:27.673Z,12.00
2019-02-10T08:52:40.238Z,10.67
2019-02-10T08:55:29.175Z,10.67
2019-02-10T09:01:15.511Z,11.27
2019-02-10T09:04:11.552Z,11.37
2019-02-10T09:07:05.945Z,10.80
2019-02-10T09:10:00.989Z,11.87
2019-02-10T09:12:56.207Z,10.73
2019-02-10T09:15:50.856Z,10.90
2019-02-10T09:18:47.572Z,11.83
2019-02-10T09:21:42.748Z,11.53
2019-02-10T09:24:39.281Z,11.17
2019-02-10T09:27:34.009Z,11.13
2019-02-10T09:30:22.679Z,12.10
2019-02-10T09:33:17.141Z,11.23
2019-02-10T09:36:11.676Z,10.23
2019-02-10T09:39:11.000Z,11.30
2019-02-10T09:42:04.239Z,11.03
2019-02-10T09:44:59.225Z,11.53
2019-02-10T09:47:54.466Z,12.67
2019-02-10T09:50:49.335Z,11.57
2019-02-10T09:53:44.204Z,10.90
2019-02-10T09:56:39.072Z,12.10
2019-02-10T09:59:34.069Z,13.70
2019-02-10T10:02:28.801Z,11.90
2019-02-10T10:05:23.581Z,11.93
2019-02-10T10:08:18.571Z,13.33
2019-02-10T10:11:13.427Z,12.17
2019-02-10T10:14:07.939Z,12.53
2019-02-10T10:17:03.199Z,11.30
2019-02-10T10:19:57.751Z,13.50
2019-02-10T10:22:56.638Z,12.77
2019-02-10T10:25:51.294Z,13.23
2019-02-10T10:28:46.347Z,12.80
2019-02-10T10:31:40.811Z,12.33
2019-02-10T10:34:35.593Z,12.83
2019-02-10T10:37:31.135Z,13.07
2019-02-10T10:40:26.029Z,14.90
2019-02-10T10:43:20.729Z,13.30
2019-02-10T10:46:16.030Z,13.53
2019-02-10T10:49:10.197Z,13.80
2019-02-10T10:52:04.857Z,13.73
2019-02-10T11:00:42.863Z,13.17
2019-02-10T11:03:37.570Z,14.57
2019-02-10T11:09:18.434Z,14.43
2019-02-10T11:12:13.056Z,14.17
2019-02-10T11:15:07.540Z,13.20
2019-02-10T11:18:02.367Z,12.93
2019-02-10T11:20:57.070Z,12.67
2019-02-10T11:23:51.241Z,12.43
2019-02-10T11:26:46.102Z,13.70
2019-02-10T11:29:40.679Z,13.33
2019-02-10T11:32:35.148Z,12.63
2019-02-10T11:35:29.285Z,12.50
2019-02-10T11:38:23.444Z,13.53
2019-02-10T11:41:18.270Z,13.20
2019-02-10T11:44:11.808Z,13.93
2019-02-10T11:47:06.108Z,13.57
2019-02-10T11:50:00.955Z,13.13
2019-02-10T11:52:55.817Z,13.50
2019-02-10T11:55:50.685Z,13.67
2019-02-10T11:58:48.112Z,12.80
2019-02-10T12:01:44.377Z,12.13
2019-02-10T12:04:38.644Z,12.83
2019-02-10T12:07:32.695Z,13.83
2019-02-10T12:10:26.932Z,13.57
2019-02-10T12:13:21.635Z,13.33
2019-02-10T12:16:16.264Z,13.10
2019-02-10T12:19:10.925Z,14.03
2019-02-10T12:22:05.056Z,13.30
2019-02-10T12:24:59.603Z,14.77
2019-02-10T12:27:54.453Z,14.43
2019-02-10T12:30:49.010Z,15.63
2019-02-10T12:33:44.843Z,13.63
2019-02-10T12:36:40.431Z,17.97
2019-02-10T12:39:35.827Z,21.97
2019-02-10T12:42:30.326Z,16.17
2019-02-10T12:45:25.621Z,19.30
2019-02-10T12:48:20.080Z,23.80
2019-02-10T12:51:15.077Z,20.40
2019-02-10T12:54:10.392Z,21.67
2019-02-10T12:57:05.093Z,19.73
2019-02-10T13:00:00.250Z,14.60
2019-02-10T13:02:54.868Z,14.87
2019-02-10T13:05:49.694Z,16.63
2019-02-10T13:08:44.286Z,15.87
2019-02-10T13:11:39.117Z,22.50
2019-02-10T13:14:34.672Z,23.60
2019-02-10T13:17:29.221Z,18.40
2019-02-10T13:20:23.558Z,23.30
2019-02-10T13:23:18.509Z,24.17
2019-02-10T13:26:12.941Z,30.10
2019-02-10T13:29:07.522Z,21.10
2019-02-10T13:32:02.337Z,23.90
2019-02-10T13:34:57.138Z,21.27
2019-02-10T13:37:51.495Z,18.30
2019-02-10T13:40:44.595Z,28.47
2019-02-10T13:43:38.068Z,21.97
2019-02-10T13:46:32.522Z,21.60
2019-02-10T13:49:26.802Z,36.93
2019-02-10T13:52:21.350Z,23.10
2019-02-10T13:55:15.983Z,40.87
2019-02-10T13:58:10.364Z,40.43
2019-02-10T14:01:04.859Z,43.70
2019-02-10T14:03:59.430Z,30.93
2019-02-10T14:06:54.413Z,44.90
2019-02-10T14:09:49.470Z,47.97
2019-02-10T14:12:43.987Z,36.63
2019-02-10T14:15:38.355Z,36.50
2019-02-10T14:18:33.066Z,32.47
2019-02-10T14:21:27.613Z,39.00
2019-02-10T14:24:22.752Z,34.43
2019-02-10T14:27:17.419Z,47.07
2019-02-10T14:30:14.104Z,46.80
2019-02-10T14:33:12.512Z,32.83
2019-02-10T14:36:07.108Z,43.40
2019-02-10T14:39:01.389Z,43.33
2019-02-10T14:41:57.601Z,44.27
2019-02-10T14:44:52.044Z,41.40
2019-02-10T14:47:47.814Z,36.97
2019-02-10T14:50:42.384Z,36.33
2019-02-10T14:53:36.693Z,36.93
2019-02-10T14:56:30.811Z,35.90
2019-02-10T14:59:25.590Z,33.33
2019-02-10T15:02:20.366Z,35.60
2019-02-10T15:05:15.336Z,31.33
2019-02-10T15:08:09.863Z,32.27
2019-02-10T15:11:04.164Z,33.23
2019-02-10T15:13:58.678Z,31.60
2019-02-10T15:16:52.896Z,30.73
2019-02-10T15:19:47.425Z,29.07
2019-02-10T15:22:41.749Z,28.87
2019-02-10T15:25:36.019Z,29.70
2019-02-10T15:28:30.666Z,29.07
2019-02-10T15:31:25.240Z,29.50
2019-02-10T15:34:17.623Z,27.20
2019-02-10T15:37:12.447Z,28.60
2019-02-10T15:40:07.127Z,25.37
2019-02-10T15:43:01.727Z,27.67
2019-02-10T15:45:55.867Z,27.93
2019-02-10T15:48:50.004Z,28.63
2019-02-10T15:51:44.333Z,29.77
2019-02-10T15:54:38.447Z,28.97
2019-02-10T15:57:32.775Z,26.90
2019-02-10T16:00:28.542Z,35.10
2019-02-10T16:03:24.399Z,34.87
2019-02-10T16:06:18.657Z,35.07
2019-02-10T16:09:13.024Z,34.60
2019-02-10T16:12:07.617Z,31.60
2019-02-10T16:15:02.374Z,30.57
2019-02-10T16:20:47.402Z,32.50
2019-02-10T16:23:41.949Z,30.50
2019-02-10T16:26:36.700Z,26.83
2019-02-10T16:29:30.901Z,32.30
2019-02-10T16:32:25.060Z,34.00
2019-02-10T16:35:19.955Z,33.93
2019-02-10T16:38:14.365Z,33.23
2019-02-10T16:41:08.739Z,27.60
2019-02-10T16:44:03.373Z,31.40
2019-02-10T16:46:57.999Z,32.80
2019-02-10T16:49:52.866Z,28.60
2019-02-10T16:52:47.985Z,30.50
2019-02-10T16:55:42.541Z,31.80
2019-02-10T16:58:37.495Z,27.47
2019-02-10T17:01:31.944Z,26.83
2019-02-10T17:04:26.582Z,25.30
2019-02-10T17:07:22.260Z,25.33
2019-02-10T17:10:17.268Z,27.73
2019-02-10T17:13:11.963Z,27.23
2019-02-10T17:16:06.352Z,28.80
2019-02-10T17:21:55.220Z,27.97
2019-02-10T17:24:49.721Z,28.67
2019-02-10T17:27:44.225Z,26.67
2019-02-10T17:30:40.118Z,29.47
2019-02-10T17:33:35.003Z,27.37
2019-02-10T17:36:29.295Z,26.07
2019-02-10T17:39:25.990Z,28.77
2019-02-10T17:42:20.622Z,30.63
2019-02-10T17:45:15.033Z,29.23
2019-02-10T17:48:09.507Z,29.93
2019-02-10T17:51:04.657Z,30.97
2019-02-10T17:54:00.451Z,31.80
2019-02-10T17:56:55.070Z,33.00
2019-02-10T17:59:49.944Z,34.67
2019-02-10T18:02:44.779Z,33.77
2019-02-10T18:05:40.319Z,33.60
2019-02-10T18:08:34.020Z,41.33
2019-02-10T18:11:31.142Z,44.57
2019-02-10T18:14:54.550Z,41.13
2019-02-10T18:18:13.373Z,35.97
2019-02-10T18:21:45.250Z,29.87
2019-02-10T18:24:56.208Z,29.60
2019-02-10T18:28:05.324Z,29.93
2019-02-10T18:31:20.703Z,31.17
2019-02-10T18:34:25.378Z,29.77
2019-02-10T18:37:46.696Z,30.60
2019-02-10T18:41:04.931Z,31.13
2019-02-10T18:44:23.129Z,31.63
2019-02-10T18:50:27.129Z,28.80
2019-02-10T18:53:37.627Z,28.70
2019-02-10T18:56:55.864Z,26.00
2019-02-10T19:00:10.895Z,25.93
2019-02-10T19:03:12.254Z,26.33
2019-02-10T19:06:40.394Z,26.57
2019-02-10T19:09:51.133Z,26.67
2019-02-10T19:13:22.349Z,26.87
2019-02-10T19:16:32.977Z,26.67
2019-02-10T19:19:54.987Z,24.47
2019-02-10T19:23:09.010Z,25.23
2019-02-10T19:26:22.212Z,24.07
2019-02-10T19:29:34.668Z,24.20
2019-02-10T19:32:46.613Z,24.03
2019-02-10T19:35:51.412Z,22.57
2019-02-10T19:39:04.602Z,24.17
2019-02-10T19:42:14.983Z,22.70
2019-02-10T19:45:17.533Z,23.43
2019-02-10T19:48:28.285Z,23.10
2019-02-10T19:51:40.679Z,24.13
2019-02-10T19:54:53.058Z,21.93
2019-02-10T19:58:08.236Z,22.90
2019-02-10T20:01:38.856Z,21.67
2019-02-10T20:04:54.241Z,22.47
2019-02-10T20:08:10.331Z,22.87
2019-02-10T20:11:22.844Z,22.47
2019-02-10T20:14:33.783Z,22.60
2019-02-10T20:17:37.922Z,22.93
2019-02-10T20:20:50.129Z,21.00
2019-02-10T20:24:05.484Z,21.80
2019-02-10T20:27:16.453Z,21.23
2019-02-10T20:30:39.584Z,21.60
2019-02-10T20:34:07.089Z,22.47
2019-02-10T20:37:22.164Z,22.97
2019-02-10T20:40:32.932Z,24.00
2019-02-10T20:43:34.784Z,23.37
2019-02-10T20:47:02.139Z,21.80
2019-02-10T20:50:17.569Z,23.90
2019-02-10T20:53:29.663Z,26.47
2019-02-10T20:56:33.385Z,22.57
2019-02-10T20:59:34.387Z,25.10
2019-02-10T21:02:40.541Z,34.57
2019-02-10T21:05:52.579Z,32.90
2019-02-10T21:09:21.347Z,34.93
2019-02-10T21:12:43.217Z,35.30
2019-02-10T21:15:52.613Z,36.83
2019-02-10T21:18:54.404Z,27.97
2019-02-10T21:25:26.680Z,40.27
2019-02-10T21:28:26.231Z,40.73
2019-02-10T21:31:53.796Z,44.57
2019-02-10T21:35:07.296Z,36.83
2019-02-10T21:38:22.730Z,49.67
2019-02-10T21:41:53.469Z,58.10
2019-02-10T21:45:11.949Z,48.13
2019-02-10T21:48:21.971Z,54.63
2019-02-10T21:51:15.946Z,52.50
2019-02-10T21:54:09.911Z,55.20
2019-02-10T21:57:03.907Z,48.57
2019-02-10T21:59:57.775Z,52.60
2019-02-10T22:02:52.126Z,48.03
2019-02-10T22:05:46.337Z,39.30
2019-02-10T22:08:40.409Z,43.40
2019-02-10T22:11:34.819Z,48.70
2019-02-10T22:14:28.823Z,49.60
2019-02-10T22:17:23.164Z,39.30
2019-02-10T22:20:17.455Z,51.60
2019-02-10T22:23:11.949Z,51.63
2019-02-10T22:26:06.426Z,53.03
2019-02-10T22:29:00.872Z,52.67
2019-02-10T22:31:55.416Z,41.87
2019-02-10T22:34:49.927Z,54.13
2019-02-10T22:37:44.374Z,48.23
2019-02-10T22:40:38.449Z,50.23
2019-02-10T22:43:32.877Z,51.40
2019-02-10T22:46:27.225Z,39.60
2019-02-10T22:49:21.474Z,47.10
2019-02-10T22:52:15.898Z,56.57
2019-02-10T22:55:10.280Z,63.70
2019-02-10T22:58:04.942Z,60.27
2019-02-10T23:01:05.171Z,64.37
2019-02-10T23:03:59.661Z,65.10
2019-02-10T23:06:53.714Z,64.83
2019-02-10T23:09:47.687Z,67.73
2019-02-10T23:12:41.812Z,64.30
2019-02-10T23:15:36.143Z,68.57
2019-02-10T23:18:30.284Z,58.27
2019-02-10T23:21:24.724Z,61.20
2019-02-10T23:24:19.211Z,60.17
2019-02-10T23:27:13.255Z,57.77
2019-02-10T23:30:08.644Z,56.93
2019-02-10T23:33:03.198Z,54.13
2019-02-10T23:35:57.440Z,50.17
2019-02-10T23:38:51.503Z,47.73
2019-02-10T23:41:45.886Z,51.33
2019-02-10T23:44:40.245Z,46.80
2019-02-10T23:47:34.445Z,51.53
2019-02-10T23:50:28.962Z,58.43
2019-02-10T23:53:23.285Z,51.87
2019-02-10T23:56:17.717Z,47.53
2019-02-10T23:59:12.213Z,49.13
